createdAt,value
2018-07-27T00:00:04.966Z,8.78
2018-07-27T00:02:33.579Z,8.80
2018-07-27T00:05:02.125Z,8.27
2018-07-27T00:07:30.690Z,9.27
2018-07-27T00:09:59.429Z,8.90
2018-07-27T00:12:28.014Z,10.65
2018-07-27T00:14:56.555Z,10.43
2018-07-27T00:17:25.117Z,11.30
2018-07-27T00:19:53.627Z,10.13
2018-07-27T00:22:22.670Z,12.97
2018-07-27T00:24:51.229Z,10.83
2018-07-27T00:27:19.836Z,9.93
2018-07-27T00:29:49.167Z,11.10
2018-07-27T00:32:17.728Z,10.10
2018-07-27T00:34:46.292Z,11.70
2018-07-27T00:55:39.506Z,11.93
2018-07-27T00:58:08.059Z,11.43
2018-07-27T01:00:36.597Z,11.18
2018-07-27T01:03:05.220Z,11.33
2018-07-27T01:05:33.756Z,10.82
2018-07-27T01:08:02.339Z,11.00
2018-07-27T01:10:30.959Z,11.93
2018-07-27T01:12:59.501Z,11.28
2018-07-27T01:15:28.114Z,12.30
2018-07-27T01:17:57.109Z,11.80
2018-07-27T01:20:25.694Z,12.23
2018-07-27T01:22:55.118Z,12.77
2018-07-27T01:25:23.717Z,12.23
2018-07-27T01:27:52.269Z,12.93
2018-07-27T01:30:21.553Z,13.13
2018-07-27T01:32:50.138Z,12.30
2018-07-27T01:35:18.806Z,11.60
2018-07-27T01:37:47.389Z,12.33
2018-07-27T01:40:18.105Z,12.50
2018-07-27T01:42:46.759Z,12.07
2018-07-27T01:51:25.361Z,12.05
2018-07-27T01:53:53.903Z,14.37
2018-07-27T01:56:22.487Z,16.17
2018-07-27T01:58:51.432Z,14.43
2018-07-27T02:01:20.039Z,14.23
2018-07-27T02:03:48.592Z,13.47
2018-07-27T02:06:17.454Z,14.03
2018-07-27T02:08:46.043Z,14.20
2018-07-27T02:31:45.306Z,14.03
2018-07-27T02:34:16.128Z,15.35
2018-07-27T02:36:44.822Z,14.50
2018-07-27T02:39:14.018Z,15.03
2018-07-27T02:41:42.575Z,14.53
2018-07-27T02:44:11.123Z,13.90
2018-07-27T02:46:39.741Z,14.37
2018-07-27T02:49:08.814Z,15.10
2018-07-27T02:51:37.486Z,15.07
2018-07-27T02:54:06.154Z,15.10
2018-07-27T02:56:34.686Z,15.43
2018-07-27T02:59:03.243Z,15.53
2018-07-27T03:01:31.802Z,15.85
2018-07-27T03:04:00.413Z,16.70
2018-07-27T03:06:28.936Z,16.15
2018-07-27T03:08:57.507Z,15.35
2018-07-27T03:11:26.059Z,16.95
2018-07-27T03:13:54.586Z,16.37
2018-07-27T03:16:23.556Z,16.60
2018-07-27T03:18:52.125Z,16.67
2018-07-27T03:21:20.702Z,16.80
2018-07-27T03:23:49.474Z,16.83
2018-07-27T03:26:18.038Z,18.00
2018-07-27T03:28:46.275Z,17.40
2018-07-27T03:42:18.526Z,17.48
2018-07-27T03:44:47.420Z,17.13
2018-07-27T03:47:17.419Z,17.17
2018-07-27T03:49:45.967Z,16.20
2018-07-27T03:52:15.665Z,18.42
2018-07-27T03:54:44.224Z,18.93
2018-07-27T03:57:12.874Z,16.83
2018-07-27T03:59:41.491Z,16.95
2018-07-27T04:02:10.036Z,17.97
2018-07-27T04:04:38.935Z,19.30
2018-07-27T04:07:07.550Z,17.15
2018-07-27T04:09:36.130Z,16.57
2018-07-27T04:12:04.811Z,17.67
2018-07-27T04:14:33.430Z,18.23
2018-07-27T04:17:02.656Z,18.67
2018-07-27T04:19:31.221Z,16.60
2018-07-27T04:21:59.791Z,17.90
2018-07-27T04:24:29.214Z,17.93
2018-07-27T04:26:57.804Z,17.27
2018-07-27T04:29:27.550Z,17.13
2018-07-27T04:31:56.070Z,17.63
2018-07-27T04:34:24.629Z,17.87
2018-07-27T04:36:53.170Z,14.97
2018-07-27T04:39:21.681Z,18.30
2018-07-27T04:41:50.345Z,16.90
2018-07-27T04:44:18.846Z,18.60
2018-07-27T04:46:47.590Z,16.45
2018-07-27T04:49:17.808Z,16.93
2018-07-27T04:51:46.359Z,18.73
2018-07-27T05:02:59.984Z,18.37
2018-07-27T05:05:29.044Z,17.40
2018-07-27T05:07:57.533Z,18.23
2018-07-27T05:10:58.716Z,19.23
2018-07-27T05:13:27.226Z,19.37
2018-07-27T05:15:55.766Z,17.50
2018-07-27T05:18:24.314Z,16.10
2018-07-27T05:20:52.864Z,17.20
2018-07-27T05:23:21.394Z,15.78
2018-07-27T05:25:49.612Z,16.83
2018-07-27T05:28:18.195Z,17.70
2018-07-27T05:30:46.868Z,16.70
2018-07-27T05:42:57.247Z,16.70
2018-07-27T05:45:25.948Z,15.53
2018-07-27T05:47:55.307Z,14.30
2018-07-27T05:50:24.226Z,15.40
2018-07-27T05:52:52.948Z,14.87
2018-07-27T05:55:22.131Z,13.46
2018-07-27T05:57:50.759Z,13.00
2018-07-27T06:00:19.344Z,12.70
2018-07-27T06:02:47.978Z,11.73
2018-07-27T06:05:18.074Z,11.87
2018-07-27T06:07:46.683Z,10.20
2018-07-27T06:28:19.480Z,8.65
2018-07-27T06:30:47.917Z,9.30
2018-07-27T06:33:17.180Z,9.40
2018-07-27T06:35:45.712Z,18.70
2018-07-27T06:48:46.076Z,8.65
2018-07-27T06:58:53.522Z,8.37
2018-07-27T07:01:22.021Z,8.22
2018-07-27T07:03:50.477Z,8.90
2018-07-27T07:06:19.372Z,8.63
2018-07-27T07:08:47.833Z,8.47
2018-07-27T07:11:17.349Z,8.60
2018-07-27T07:13:45.877Z,8.50
2018-07-27T07:24:12.937Z,8.35
2018-07-27T07:26:42.214Z,8.65
2018-07-27T07:29:10.708Z,9.30
2018-07-27T07:31:39.211Z,8.87
2018-07-27T07:34:07.709Z,9.30
2018-07-27T07:36:36.217Z,9.00
2018-07-27T07:39:08.141Z,8.70
2018-07-27T07:41:36.681Z,9.47
2018-07-27T07:44:05.502Z,8.73
2018-07-27T07:46:35.451Z,8.23
2018-07-27T07:49:05.130Z,8.50
2018-07-27T07:51:35.424Z,7.78
2018-07-27T07:54:04.421Z,7.70
2018-07-27T07:56:33.637Z,7.13
2018-07-27T07:59:02.738Z,6.00
2018-07-27T08:01:31.447Z,5.55
2018-07-27T08:03:59.641Z,5.43
2018-07-27T08:06:28.379Z,5.37
2018-07-27T08:08:57.076Z,5.40
2018-07-27T08:11:27.107Z,4.75
2018-07-27T08:13:56.182Z,5.40
2018-07-27T08:16:24.822Z,4.80
2018-07-27T08:18:53.313Z,4.83
2018-07-27T08:21:24.136Z,4.00
2018-07-27T08:23:52.889Z,4.77
2018-07-27T08:26:47.238Z,4.20
2018-07-27T08:41:30.651Z,4.37
2018-07-27T08:43:59.122Z,5.17
2018-07-27T08:46:27.624Z,4.10
2018-07-27T08:48:57.529Z,4.70
2018-07-27T08:51:26.502Z,5.28
2018-07-27T08:53:55.961Z,4.90
2018-07-27T08:56:24.579Z,4.23
2018-07-27T08:58:53.874Z,4.90
2018-07-27T09:01:22.434Z,5.22
2018-07-27T09:03:51.224Z,5.30
2018-07-27T09:06:19.901Z,5.40
2018-07-27T09:08:48.557Z,4.90
2018-07-27T09:11:17.575Z,4.50
2018-07-27T09:13:46.075Z,5.20
2018-07-27T09:22:27.542Z,5.42
2018-07-27T09:24:56.268Z,4.40
2018-07-27T09:27:24.549Z,3.40
2018-07-27T09:29:55.294Z,3.93
2018-07-27T09:32:23.785Z,3.63
2018-07-27T09:34:52.691Z,3.97
2018-07-27T09:37:21.212Z,3.62
2018-07-27T09:39:49.767Z,3.60
2018-07-27T09:42:18.242Z,3.30
2018-07-27T09:44:48.234Z,4.30
2018-07-27T09:47:18.623Z,3.60
2018-07-27T09:49:47.178Z,3.73
2018-07-27T09:52:17.600Z,3.20
2018-07-27T09:54:46.251Z,4.00
2018-07-27T10:16:46.943Z,3.52
2018-07-27T10:21:52.413Z,4.00
2018-07-27T10:24:20.929Z,4.20
2018-07-27T10:26:49.449Z,4.40
2018-07-27T10:29:17.996Z,4.60
2018-07-27T10:31:46.145Z,4.57
2018-07-27T10:50:27.147Z,5.17
2018-07-27T10:52:55.947Z,5.87
2018-07-27T10:55:24.134Z,5.35
2018-07-27T10:57:52.734Z,5.53
2018-07-27T11:00:21.354Z,5.17
2018-07-27T11:02:49.872Z,5.83
2018-07-27T11:05:18.481Z,5.93
2018-07-27T11:07:47.040Z,5.40
2018-07-27T11:29:47.153Z,5.75
2018-07-27T11:34:53.207Z,6.20
2018-07-27T11:37:22.565Z,5.30
2018-07-27T11:39:51.082Z,5.60
2018-07-27T11:42:19.657Z,5.80
2018-07-27T11:44:49.238Z,6.57
2018-07-27T11:47:17.738Z,5.50
2018-07-27T11:49:46.872Z,6.17
2018-07-27T11:58:27.302Z,5.85
2018-07-27T12:00:56.249Z,5.90
2018-07-27T12:03:24.731Z,5.60
2018-07-27T12:05:54.634Z,5.40
2018-07-27T12:08:24.269Z,5.27
2018-07-27T12:10:52.735Z,4.50
2018-07-27T12:13:21.346Z,5.03
2018-07-27T12:15:50.488Z,4.97
2018-07-27T12:18:18.963Z,5.00
2018-07-27T12:20:47.631Z,4.53
2018-07-27T12:31:48.763Z,4.45
2018-07-27T12:34:18.078Z,4.10
2018-07-27T12:36:46.582Z,4.10
2018-07-27T12:46:51.473Z,4.70
2018-07-27T12:49:20.053Z,4.40
2018-07-27T12:51:48.285Z,3.70
2018-07-27T12:54:16.878Z,3.70
2018-07-27T12:56:45.485Z,3.45
2018-07-27T13:07:01.100Z,3.92
2018-07-27T13:09:31.407Z,4.28
2018-07-27T13:11:59.970Z,3.90
2018-07-27T13:14:28.512Z,3.70
2018-07-27T13:16:57.063Z,3.80
2018-07-27T13:19:25.563Z,4.23
2018-07-27T13:21:54.184Z,3.53
2018-07-27T13:26:50.937Z,4.07
2018-07-27T13:29:19.919Z,4.00
2018-07-27T13:32:04.836Z,3.52
2018-07-27T13:34:41.031Z,4.20
2018-07-27T13:37:11.204Z,4.13
2018-07-27T13:39:41.115Z,3.50
2018-07-27T13:42:17.351Z,4.40
2018-07-27T13:44:46.349Z,3.57
2018-07-27T13:56:56.704Z,3.75
2018-07-27T13:59:25.648Z,3.25
2018-07-27T14:01:54.158Z,3.50
2018-07-27T14:04:23.240Z,3.40
2018-07-27T14:07:00.944Z,3.40
2018-07-27T14:09:29.733Z,3.60
2018-07-27T14:11:59.149Z,4.10
2018-07-27T14:14:27.807Z,3.93
2018-07-27T14:16:56.802Z,4.53
2018-07-27T14:19:26.024Z,3.53
2018-07-27T14:21:54.691Z,3.70
2018-07-27T14:24:23.313Z,4.30
2018-07-27T14:26:52.885Z,4.23
2018-07-27T14:29:23.377Z,4.20
2018-07-27T14:31:52.012Z,4.03
2018-07-27T14:34:20.858Z,3.90
2018-07-27T14:36:49.605Z,4.00
2018-07-27T14:39:18.276Z,3.73
2018-07-27T14:41:48.066Z,4.30
2018-07-27T14:44:17.412Z,4.10
2018-07-27T14:46:47.335Z,3.70
2018-07-27T14:49:18.419Z,3.60
2018-07-27T14:51:47.007Z,4.20
2018-07-27T15:02:53.682Z,3.75
2018-07-27T15:05:22.389Z,4.23
2018-07-27T15:07:51.069Z,3.70
2018-07-27T15:10:21.025Z,3.77
2018-07-27T15:12:50.300Z,3.90
2018-07-27T15:15:18.586Z,3.97
2018-07-27T15:17:47.964Z,4.10
2018-07-27T15:28:07.369Z,3.90
2018-07-27T15:30:36.207Z,5.07
2018-07-27T15:33:04.437Z,4.20
2018-07-27T15:35:33.089Z,4.40
2018-07-27T15:38:01.880Z,4.20
2018-07-27T15:40:30.462Z,4.10
2018-07-27T15:42:59.132Z,3.70
2018-07-27T15:45:27.728Z,4.63
2018-07-27T15:47:56.359Z,3.20
2018-07-27T15:50:25.259Z,3.80
2018-07-27T15:52:53.774Z,3.93
2018-07-27T15:55:22.306Z,3.90
2018-07-27T15:57:50.901Z,3.80
2018-07-27T16:00:19.422Z,3.70
2018-07-27T16:02:48.210Z,3.97
2018-07-27T16:05:18.773Z,4.30
2018-07-27T16:07:47.352Z,4.17
2018-07-27T16:28:05.518Z,4.00
2018-07-27T16:30:34.030Z,4.42
2018-07-27T16:33:02.575Z,4.30
2018-07-27T16:35:31.179Z,4.33
2018-07-27T16:37:59.645Z,4.03
2018-07-27T16:40:28.238Z,4.47
2018-07-27T16:42:56.830Z,5.00
2018-07-27T16:45:25.654Z,4.30
2018-07-27T16:47:54.152Z,4.27
2018-07-27T16:50:23.373Z,4.30
2018-07-27T16:52:52.039Z,4.63
2018-07-27T16:55:20.208Z,4.12
2018-07-27T16:57:48.718Z,3.80
2018-07-27T17:00:17.619Z,4.95
2018-07-27T17:02:46.149Z,4.37
2018-07-27T17:23:53.327Z,4.55
2018-07-27T17:26:22.072Z,4.70
2018-07-27T17:28:50.659Z,5.57
2018-07-27T17:31:19.717Z,4.77
2018-07-27T17:33:48.401Z,4.67
2018-07-27T17:36:17.377Z,5.17
2018-07-27T17:38:45.925Z,5.10
2018-07-27T17:58:48.709Z,4.83
2018-07-27T18:01:17.466Z,5.60
2018-07-27T18:03:45.947Z,5.50
2018-07-27T18:14:14.058Z,5.50
2018-07-27T18:16:42.603Z,6.77
2018-07-27T18:19:11.625Z,6.07
2018-07-27T18:21:40.195Z,6.73
2018-07-27T18:24:08.744Z,6.47
2018-07-27T18:26:38.126Z,6.40
2018-07-27T18:29:06.958Z,6.83
2018-07-27T18:31:35.482Z,6.90
2018-07-27T18:34:03.772Z,6.60
2018-07-27T18:36:32.906Z,6.40
2018-07-27T18:39:01.429Z,6.08
2018-07-27T18:41:29.926Z,6.67
2018-07-27T18:43:58.551Z,7.28
2018-07-27T18:46:27.102Z,7.30
2018-07-27T18:48:55.675Z,6.97
2018-07-27T18:51:24.350Z,7.95
2018-07-27T18:53:53.055Z,8.20
2018-07-27T18:56:21.592Z,9.10
2018-07-27T18:58:50.670Z,10.40
2018-07-27T19:01:19.190Z,12.03
2018-07-27T19:03:47.729Z,16.23
2018-07-27T19:14:38.876Z,14.77
2018-07-27T19:17:07.427Z,12.57
2018-07-27T19:19:36.080Z,11.83
2018-07-27T19:22:04.755Z,10.70
2018-07-27T19:24:33.477Z,10.73
2018-07-27T19:41:28.206Z,10.82
2018-07-27T19:43:58.219Z,10.43
2018-07-27T19:46:27.128Z,10.82
2018-07-27T19:48:56.173Z,11.50
2018-07-27T19:51:24.802Z,11.80
2018-07-27T19:53:53.552Z,14.60
2018-07-27T19:56:23.476Z,15.03
2018-07-27T19:58:52.454Z,13.27
2018-07-27T20:01:21.124Z,14.87
2018-07-27T20:03:50.760Z,14.07
2018-07-27T20:06:19.374Z,15.27
2018-07-27T20:08:48.171Z,11.70
2018-07-27T20:11:17.496Z,12.27
2018-07-27T20:13:51.744Z,12.00
2018-07-27T20:16:20.350Z,12.03
2018-07-27T20:18:48.872Z,11.47
2018-07-27T20:21:17.425Z,11.17
2018-07-27T20:23:46.076Z,11.13
2018-07-27T20:31:50.051Z,12.80
2018-07-27T20:34:18.783Z,12.20
2018-07-27T20:36:47.031Z,11.27
2018-07-27T20:47:27.461Z,12.28
2018-07-27T20:49:56.405Z,11.00
2018-07-27T20:52:25.316Z,11.03
2018-07-27T20:54:54.014Z,10.57
2018-07-27T20:57:22.654Z,11.30
2018-07-27T20:59:51.214Z,12.07
2018-07-27T21:02:20.663Z,11.40
2018-07-27T21:04:49.196Z,11.40
2018-07-27T21:07:17.737Z,10.70
2018-07-27T21:09:46.432Z,10.67
2018-07-27T21:12:17.900Z,11.05
2018-07-27T21:14:46.212Z,10.93
2018-07-27T21:27:47.686Z,11.60
2018-07-27T21:30:17.771Z,11.50
2018-07-27T21:32:46.311Z,10.40
2018-07-27T21:43:03.024Z,11.13
2018-07-27T21:45:31.726Z,10.90
2018-07-27T21:48:00.322Z,12.03
2018-07-27T21:50:28.985Z,11.33
2018-07-27T21:52:57.546Z,11.40
2018-07-27T21:55:26.053Z,11.63
2018-07-27T21:57:54.686Z,11.60
2018-07-27T22:00:23.177Z,12.20
2018-07-27T22:02:51.757Z,11.00
2018-07-27T22:05:20.297Z,11.97
2018-07-27T22:07:53.090Z,12.40
2018-07-27T22:10:21.650Z,11.73
2018-07-27T22:12:50.170Z,12.30
2018-07-27T22:15:24.441Z,12.33
2018-07-27T22:17:53.065Z,12.30
2018-07-27T22:20:23.008Z,12.20
2018-07-27T22:22:51.845Z,12.10
2018-07-27T22:25:20.418Z,12.03
2018-07-27T22:27:49.284Z,11.83
2018-07-27T22:30:17.884Z,12.40
2018-07-27T22:32:46.419Z,12.47
2018-07-27T22:43:32.592Z,12.18
2018-07-27T22:46:01.224Z,13.87
2018-07-27T22:48:30.957Z,12.98
2018-07-27T22:50:59.879Z,12.85
2018-07-27T22:53:28.435Z,13.40
2018-07-27T22:55:57.069Z,14.40
2018-07-27T22:58:25.645Z,14.17
2018-07-27T23:00:54.138Z,16.43
2018-07-27T23:03:22.673Z,16.37
2018-07-27T23:05:51.609Z,16.10
2018-07-27T23:08:20.132Z,16.20
2018-07-27T23:10:48.667Z,15.30
2018-07-27T23:13:17.568Z,15.90
2018-07-27T23:15:46.145Z,18.43
2018-07-27T23:28:48.580Z,15.53
2018-07-27T23:31:17.395Z,17.40
2018-07-27T23:33:47.665Z,19.00
2018-07-27T23:36:17.511Z,17.80
2018-07-27T23:38:46.043Z,16.37
2018-07-27T23:41:15.718Z,17.10
2018-07-27T23:43:44.361Z,15.57
2018-07-27T23:46:12.958Z,16.43
2018-07-27T23:48:41.551Z,15.97
2018-07-27T23:51:11.140Z,18.20
2018-07-27T23:53:39.646Z,19.03
2018-07-27T23:56:08.728Z,19.67
2018-07-27T23:58:37.306Z,19.80
